Time;durP1;ratioP1;P1;durP2;ratioP2;P2;SDS_P1;SDS_P2;PMS_P1;PMS_P2;Temp;Humidity;BMP_temperature;BMP_pressure;BME280_temperature;BME280_humidity;BME280_pressure;Samples;Min_cycle;Max_cycle;Signal;HPM_P1;HPM_P2
2023/12/10 00:00:57;;;;;;;;;;;12.70;99.90;;;;;;5092117;28;19935;-78
2023/12/10 00:03:24;;;;;;;;;;;12.70;99.90;;;;;;5060762;28;19935;-80
2023/12/10 00:05:54;;;;;;;;;;;12.70;99.90;;;;;;5072086;28;21417;-80
2023/12/10 00:08:20;;;;;;;;;;;12.60;99.90;;;;;;5073043;28;19908;-80
2023/12/10 00:10:46;;;;;;;;;;;12.60;99.90;;;;;;5072677;28;19908;-81
2023/12/10 00:13:12;;;;;;;;;;;12.60;99.90;;;;;;5072633;28;20319;-80
2023/12/10 00:15:38;;;;;;;;;;;12.60;99.90;;;;;;5072419;28;20368;-80
2023/12/10 00:18:04;;;;;;;;;;;12.50;99.90;;;;;;5072565;28;20364;-80
2023/12/10 00:20:31;;;;;;;;;;;12.50;99.90;;;;;;5076165;28;19998;-80
2023/12/10 00:23:12;;;;;;;;;;;12.40;99.90;;;;;;5074333;28;19908;-79
2023/12/10 00:25:43;;;;;;;;;;;12.30;99.90;;;;;;5092553;28;19908;-81
2023/12/10 00:28:09;;;;;;;;;;;12.30;99.90;;;;;;5093020;28;19954;-79
2023/12/10 00:30:36;;;;;;;;;;;12.20;99.90;;;;;;5084390;28;19963;-80
2023/12/10 00:33:03;;;;;;;;;;;12.20;99.90;;;;;;5103830;28;19958;-81
2023/12/10 00:35:29;;;;;;;;;;;12.20;99.90;;;;;;5074141;28;19974;-79
2023/12/10 00:37:55;;;;;;;;;;;12.20;99.90;;;;;;5092083;28;19951;-78
2023/12/10 00:40:21;;;;;;;;;;;12.20;99.90;;;;;;5092412;28;19961;-79
2023/12/10 00:42:47;;;;;;;;;;;12.10;99.90;;;;;;5073993;28;19961;-80
2023/12/10 00:45:12;;;;;;;;;;;12.00;99.90;;;;;;5092115;28;20006;-79
2023/12/10 00:47:38;;;;;;;;;;;12.00;99.90;;;;;;5092161;28;19908;-79
2023/12/10 00:50:04;;;;;;;;;;;12.00;99.90;;;;;;5091966;28;19908;-79
2023/12/10 00:52:30;;;;;;;;;;;12.00;99.90;;;;;;5111406;28;19908;-79
2023/12/10 00:54:56;;;;;;;;;;;12.10;99.90;;;;;;5112371;28;19957;-78
2023/12/10 00:57:22;;;;;;;;;;;12.10;99.90;;;;;;5112445;28;19908;-79
2023/12/10 00:59:48;;;;;;;;;;;12.00;99.90;;;;;;5112474;28;19908;-80
2023/12/10 01:02:13;;;;;;;;;;;12.00;99.90;;;;;;5109367;28;19908;-80
2023/12/10 01:04:39;;;;;;;;;;;12.10;99.90;;;;;;5092232;28;19912;-79
2023/12/10 01:07:07;;;;;;;;;;;12.10;99.90;;;;;;5073597;28;19908;-79
2023/12/10 01:09:36;;;;;;;;;;;12.10;99.90;;;;;;5092123;28;19912;-79
2023/12/10 01:12:03;;;;;;;;;;;12.20;99.90;;;;;;5091656;28;19908;-80
2023/12/10 01:14:29;;;;;;;;;;;12.20;99.90;;;;;;5073278;28;19916;-79
2023/12/10 01:16:55;;;;;;;;;;;12.30;99.90;;;;;;5091425;28;19908;-80
2023/12/10 01:19:22;;;;;;;;;;;12.20;99.90;;;;;;5091667;28;19916;-78
2023/12/10 01:21:49;;;;;;;;;;;12.20;99.90;;;;;;5104904;28;20002;-78
2023/12/10 01:24:16;;;;;;;;;;;12.20;99.90;;;;;;5111960;28;19915;-79
2023/12/10 01:26:42;;;;;;;;;;;12.10;99.90;;;;;;5112106;28;20360;-79
2023/12/10 01:29:08;;;;;;;;;;;12.10;99.90;;;;;;5111824;28;19908;-79
2023/12/10 01:31:35;;;;;;;;;;;12.20;99.90;;;;;;5111400;28;19919;-78
2023/12/10 01:34:02;;;;;;;;;;;12.10;99.90;;;;;;5109340;28;19920;-79
2023/12/10 01:36:28;;;;;;;;;;;12.10;99.90;;;;;;5093380;28;19914;-78
2023/12/10 01:38:55;;;;;;;;;;;12.10;99.90;;;;;;5111693;28;19963;-79
2023/12/10 01:41:21;;;;;;;;;;;12.10;99.90;;;;;;5093345;28;20374;-79
2023/12/10 01:43:47;;;;;;;;;;;12.10;99.90;;;;;;5112186;28;19919;-79
2023/12/10 01:46:13;;;;;;;;;;;12.10;99.90;;;;;;5111794;28;19908;-80
2023/12/10 01:48:39;;;;;;;;;;;12.10;99.90;;;;;;5094771;28;19912;-80
2023/12/10 01:51:08;;;;;;;;;;;12.10;99.90;;;;;;5111609;28;19908;-79
2023/12/10 01:53:55;;;;;;;;;;;12.10;99.90;;;;;;5111740;28;20010;-78
2023/12/10 01:56:21;;;;;;;;;;;12.10;99.90;;;;;;5112041;28;19916;-78
2023/12/10 01:58:47;;;;;;;;;;;12.10;99.90;;;;;;5111890;28;20036;-79
2023/12/10 02:01:12;;;;;;;;;;;12.00;99.90;;;;;;5111958;28;19907;-79
2023/12/10 02:03:40;;;;;;;;;;;12.10;99.90;;;;;;5093243;28;19907;-80
2023/12/10 02:06:06;;;;;;;;;;;12.00;99.90;;;;;;5111617;28;19908;-76
2023/12/10 02:08:33;;;;;;;;;;;12.00;99.90;;;;;;5092982;28;19919;-80
2023/12/10 02:10:59;;;;;;;;;;;12.00;99.90;;;;;;5111507;28;19970;-80
2023/12/10 02:13:25;;;;;;;;;;;12.10;99.90;;;;;;5111983;28;20003;-80
2023/12/10 02:15:52;;;;;;;;;;;12.10;99.90;;;;;;5115026;28;19977;-80
2023/12/10 02:18:19;;;;;;;;;;;12.00;99.90;;;;;;5114978;28;19912;-78
2023/12/10 02:20:46;;;;;;;;;;;12.00;99.90;;;;;;5097080;28;20277;-79
2023/12/10 02:23:17;;;;;;;;;;;12.00;99.90;;;;;;5115955;28;19908;-79
2023/12/10 02:25:45;;;;;;;;;;;11.90;99.90;;;;;;5115414;28;20336;-80
2023/12/10 02:28:11;;;;;;;;;;;11.90;99.90;;;;;;5115204;28;19918;-79
2023/12/10 02:30:37;;;;;;;;;;;11.80;99.90;;;;;;5114937;28;20010;-80
2023/12/10 02:33:03;;;;;;;;;;;11.80;99.90;;;;;;5112977;28;19908;-79
2023/12/10 02:35:29;;;;;;;;;;;11.90;99.90;;;;;;5115151;28;19916;-80
2023/12/10 02:37:55;;;;;;;;;;;11.90;99.90;;;;;;5115039;28;20007;-79
2023/12/10 02:40:21;;;;;;;;;;;12.00;99.90;;;;;;5115173;28;20381;-79
2023/12/10 02:42:47;;;;;;;;;;;12.00;99.90;;;;;;5115052;28;19908;-79
2023/12/10 02:45:16;;;;;;;;;;;12.10;99.90;;;;;;5114783;28;19912;-79
2023/12/10 02:47:43;;;;;;;;;;;12.10;99.90;;;;;;5115264;28;20347;-78
2023/12/10 02:50:09;;;;;;;;;;;12.10;99.90;;;;;;5114814;28;19919;-78
2023/12/10 02:52:37;;;;;;;;;;;12.10;99.90;;;;;;5114545;28;20419;-79
2023/12/10 02:55:04;;;;;;;;;;;12.00;99.90;;;;;;5114269;28;19996;-80
2023/12/10 02:57:29;;;;;;;;;;;12.00;99.90;;;;;;5115001;28;19985;-80
2023/12/10 02:59:55;;;;;;;;;;;11.90;99.90;;;;;;5114639;28;20287;-79
2023/12/10 03:02:21;;;;;;;;;;;12.00;99.90;;;;;;5112360;28;20435;-80
2023/12/10 03:04:47;;;;;;;;;;;12.00;99.90;;;;;;5115161;28;20394;-80
2023/12/10 03:07:13;;;;;;;;;;;12.00;99.90;;;;;;5115064;28;19965;-79
2023/12/10 03:09:39;;;;;;;;;;;12.00;99.90;;;;;;5114515;28;19933;-78
2023/12/10 03:12:05;;;;;;;;;;;12.00;99.90;;;;;;5114539;28;20079;-80
2023/12/10 03:14:31;;;;;;;;;;;12.00;99.90;;;;;;5114279;28;20279;-79
2023/12/10 03:16:56;;;;;;;;;;;12.00;99.90;;;;;;5113986;28;19915;-80
2023/12/10 03:19:22;;;;;;;;;;;12.00;99.90;;;;;;5114047;28;19908;-79
2023/12/10 03:21:48;;;;;;;;;;;12.00;99.90;;;;;;5113940;28;19907;-79
2023/12/10 03:24:14;;;;;;;;;;;12.00;99.90;;;;;;5078814;28;19953;-79
2023/12/10 03:26:40;;;;;;;;;;;11.90;99.90;;;;;;5114159;28;19919;-77
2023/12/10 03:29:06;;;;;;;;;;;12.00;99.90;;;;;;5113976;28;19915;-79
2023/12/10 03:31:32;;;;;;;;;;;12.00;99.90;;;;;;5113693;28;19978;-79
2023/12/10 03:33:57;;;;;;;;;;;12.00;99.90;;;;;;5096563;28;19947;-79
2023/12/10 03:36:23;;;;;;;;;;;12.00;99.90;;;;;;5094018;28;20256;-79
2023/12/10 03:38:49;;;;;;;;;;;12.00;99.90;;;;;;5093487;28;19938;-79
2023/12/10 03:41:15;;;;;;;;;;;12.00;99.90;;;;;;5075074;28;20282;-79
2023/12/10 03:43:44;;;;;;;;;;;12.00;99.90;;;;;;5075035;28;19908;-79
2023/12/10 03:46:09;;;;;;;;;;;12.10;99.90;;;;;;5093065;28;19923;-77
2023/12/10 03:48:35;;;;;;;;;;;12.10;99.90;;;;;;5093543;28;19908;-79
2023/12/10 03:51:02;;;;;;;;;;;12.10;99.90;;;;;;5078235;28;20382;-79
2023/12/10 03:53:27;;;;;;;;;;;12.20;99.90;;;;;;5113570;28;20010;-80
2023/12/10 03:55:53;;;;;;;;;;;12.20;99.90;;;;;;5095061;28;19912;-79
2023/12/10 03:58:19;;;;;;;;;;;12.20;99.90;;;;;;5113757;28;20300;-80
2023/12/10 04:00:45;;;;;;;;;;;12.10;99.90;;;;;;5113354;28;19911;-79
2023/12/10 04:03:11;;;;;;;;;;;12.10;99.90;;;;;;5102405;28;19943;-79
2023/12/10 04:05:36;;;;;;;;;;;12.00;99.90;;;;;;5093503;28;19970;-80
2023/12/10 04:08:02;;;;;;;;;;;12.00;99.90;;;;;;5075406;28;20328;-80
2023/12/10 04:10:28;;;;;;;;;;;12.00;99.90;;;;;;5093076;28;19956;-81
2023/12/10 04:12:54;;;;;;;;;;;12.10;99.90;;;;;;5093330;28;20307;-80
2023/12/10 04:15:20;;;;;;;;;;;12.00;99.90;;;;;;5092922;28;19920;-79
2023/12/10 04:17:46;;;;;;;;;;;11.90;99.90;;;;;;5092532;28;19919;-80
2023/12/10 04:20:12;;;;;;;;;;;12.00;99.90;;;;;;5093741;28;19914;-80
2023/12/10 04:22:38;;;;;;;;;;;12.00;99.90;;;;;;5116197;28;19908;-81
2023/12/10 04:25:04;;;;;;;;;;;12.00;99.90;;;;;;5113041;28;19962;-80
2023/12/10 04:27:31;;;;;;;;;;;12.00;99.90;;;;;;5112670;28;19919;-79
2023/12/10 04:29:57;;;;;;;;;;;12.10;99.90;;;;;;5112867;28;19920;-80
2023/12/10 04:32:22;;;;;;;;;;;12.20;99.90;;;;;;5109087;28;19934;-80
2023/12/10 04:34:48;;;;;;;;;;;12.10;99.90;;;;;;5074242;28;19916;-79
2023/12/10 04:37:14;;;;;;;;;;;12.10;99.90;;;;;;5091160;28;19927;-80
2023/12/10 04:39:40;;;;;;;;;;;12.10;99.90;;;;;;5092255;28;19912;-79
2023/12/10 04:42:06;;;;;;;;;;;12.10;99.90;;;;;;5073520;28;19908;-79
2023/12/10 04:44:32;;;;;;;;;;;12.20;99.90;;;;;;5092309;28;19953;-80
2023/12/10 04:46:58;;;;;;;;;;;12.20;99.90;;;;;;5091997;28;19908;-79
2023/12/10 04:49:24;;;;;;;;;;;12.30;99.90;;;;;;5092414;28;19979;-80
2023/12/10 04:51:50;;;;;;;;;;;12.30;99.90;;;;;;5106626;28;20402;-78
2023/12/10 04:54:15;;;;;;;;;;;12.40;99.90;;;;;;5112169;28;19926;-79
2023/12/10 04:56:41;;;;;;;;;;;12.40;99.90;;;;;;5112601;28;20369;-79
2023/12/10 04:59:07;;;;;;;;;;;12.50;99.90;;;;;;5093895;28;19908;-80
2023/12/10 05:01:33;;;;;;;;;;;12.40;99.90;;;;;;5112194;28;20021;-79
2023/12/10 05:03:59;;;;;;;;;;;12.40;99.90;;;;;;5095057;28;19996;-80
2023/12/10 05:06:24;;;;;;;;;;;12.40;99.90;;;;;;5090614;28;19924;-76
2023/12/10 05:08:50;;;;;;;;;;;12.40;99.90;;;;;;5090745;28;19966;-80
2023/12/10 05:11:16;;;;;;;;;;;12.40;99.90;;;;;;5072850;28;20372;-79
2023/12/10 05:13:42;;;;;;;;;;;12.50;99.90;;;;;;5077329;28;20021;-80
2023/12/10 05:16:08;;;;;;;;;;;12.50;99.90;;;;;;5086966;28;19970;-80
2023/12/10 05:18:34;;;;;;;;;;;12.60;99.90;;;;;;5091073;28;19948;-80
2023/12/10 05:21:00;;;;;;;;;;;12.60;99.90;;;;;;5091095;28;19912;-79
2023/12/10 05:23:25;;;;;;;;;;;12.70;99.90;;;;;;5092421;28;19908;-81
2023/12/10 05:25:51;;;;;;;;;;;12.70;99.90;;;;;;5092419;28;19926;-79
2023/12/10 05:28:17;;;;;;;;;;;12.80;99.90;;;;;;5091933;28;19916;-80
2023/12/10 05:30:43;;;;;;;;;;;12.80;99.90;;;;;;5091772;28;19942;-79
2023/12/10 05:33:09;;;;;;;;;;;12.80;99.90;;;;;;5092168;28;19909;-80
2023/12/10 05:35:35;;;;;;;;;;;12.80;99.90;;;;;;5090923;28;19974;-80
2023/12/10 05:38:03;;;;;;;;;;;12.80;99.90;;;;;;5085006;28;19912;-79
2023/12/10 05:40:29;;;;;;;;;;;12.80;99.90;;;;;;5098595;28;19930;-78
2023/12/10 05:42:55;;;;;;;;;;;12.80;99.90;;;;;;5096450;28;19994;-79
2023/12/10 05:45:21;;;;;;;;;;;12.80;99.90;;;;;;5074420;28;19916;-79
2023/12/10 05:47:47;;;;;;;;;;;12.80;99.90;;;;;;5090445;28;20387;-80
2023/12/10 05:50:13;;;;;;;;;;;12.80;99.90;;;;;;5093704;28;19999;-80
2023/12/10 05:52:39;;;;;;;;;;;12.80;99.90;;;;;;5094898;28;19912;-79
2023/12/10 05:55:05;;;;;;;;;;;12.90;99.90;;;;;;5094518;28;19964;-80
2023/12/10 05:57:31;;;;;;;;;;;12.90;99.90;;;;;;5093527;28;19958;-79
2023/12/10 05:59:56;;;;;;;;;;;12.90;99.90;;;;;;5093730;28;19916;-80
2023/12/10 06:02:22;;;;;;;;;;;12.80;99.90;;;;;;5093944;28;19908;-78
2023/12/10 06:04:48;;;;;;;;;;;12.70;99.90;;;;;;5077186;28;19908;-80
2023/12/10 06:07:15;;;;;;;;;;;12.60;99.90;;;;;;5095617;28;19908;-79
2023/12/10 06:09:41;;;;;;;;;;;12.40;99.90;;;;;;5076829;28;19962;-80
2023/12/10 06:12:07;;;;;;;;;;;12.40;99.90;;;;;;5076704;28;19908;-81
2023/12/10 06:14:32;;;;;;;;;;;12.30;99.90;;;;;;5077108;28;20367;-81
2023/12/10 06:16:58;;;;;;;;;;;12.30;99.90;;;;;;5096255;28;19969;-81
2023/12/10 06:19:24;;;;;;;;;;;12.40;99.90;;;;;;5095732;28;19909;-79
2023/12/10 06:21:50;;;;;;;;;;;12.40;99.90;;;;;;5095750;28;19912;-79
2023/12/10 06:24:16;;;;;;;;;;;12.50;99.90;;;;;;5094250;28;19931;-80
2023/12/10 06:26:42;;;;;;;;;;;12.60;99.90;;;;;;5094579;28;19919;-79
2023/12/10 06:29:08;;;;;;;;;;;12.70;99.90;;;;;;5076116;28;19908;-79
2023/12/10 06:31:34;;;;;;;;;;;12.80;99.90;;;;;;5113495;28;19931;-80
2023/12/10 06:33:59;;;;;;;;;;;12.90;99.90;;;;;;5098471;28;19946;-80
2023/12/10 06:36:25;;;;;;;;;;;13.00;99.90;;;;;;5094755;28;19993;-80
2023/12/10 06:38:51;;;;;;;;;;;13.00;99.90;;;;;;5094438;28;19920;-80
2023/12/10 06:41:17;;;;;;;;;;;13.10;99.90;;;;;;5094621;28;19984;-78
2023/12/10 06:43:43;;;;;;;;;;;13.20;99.90;;;;;;5094317;28;20341;-79
2023/12/10 06:46:08;;;;;;;;;;;13.30;99.90;;;;;;5094008;28;19914;-82
2023/12/10 06:48:34;;;;;;;;;;;13.30;99.90;;;;;;5094197;28;19908;-84
2023/12/10 06:51:02;;;;;;;;;;;13.40;99.90;;;;;;5101912;28;19919;-81
2023/12/10 06:53:28;;;;;;;;;;;13.40;99.90;;;;;;5114218;28;20406;-80
2023/12/10 06:55:54;;;;;;;;;;;13.50;99.90;;;;;;5114699;28;19919;-80
2023/12/10 06:58:20;;;;;;;;;;;13.50;99.90;;;;;;5114629;28;19911;-79
2023/12/10 07:00:46;;;;;;;;;;;13.60;99.90;;;;;;5095117;28;19973;-75
2023/12/10 07:03:11;;;;;;;;;;;13.70;99.90;;;;;;5095541;28;20383;-74
2023/12/10 07:05:37;;;;;;;;;;;13.70;99.90;;;;;;5095520;28;19962;-75
2023/12/10 07:08:03;;;;;;;;;;;13.80;99.90;;;;;;5095478;28;19961;-75
2023/12/10 07:10:29;;;;;;;;;;;13.90;99.90;;;;;;5113941;28;19930;-74
2023/12/10 07:12:55;;;;;;;;;;;13.90;99.90;;;;;;5114197;28;19990;-75
2023/12/10 07:15:22;;;;;;;;;;;14.00;99.90;;;;;;5113685;28;19927;-75
2023/12/10 07:17:47;;;;;;;;;;;14.10;99.90;;;;;;5095568;28;20216;-84
2023/12/10 07:20:13;;;;;;;;;;;14.20;99.90;;;;;;5114513;28;19974;-82
2023/12/10 07:22:41;;;;;;;;;;;14.40;99.90;;;;;;5099599;28;19908;-80
2023/12/10 07:25:07;;;;;;;;;;;14.60;99.90;;;;;;5117011;28;19957;-82
2023/12/10 07:27:33;;;;;;;;;;;14.60;99.90;;;;;;5113940;28;19911;-81
2023/12/10 07:29:59;;;;;;;;;;;14.70;99.90;;;;;;5113506;28;19919;-81
2023/12/10 07:32:25;;;;;;;;;;;14.80;99.90;;;;;;5113575;28;20390;-83
2023/12/10 07:34:51;;;;;;;;;;;14.80;99.90;;;;;;5113781;28;19915;-82
2023/12/10 07:37:17;;;;;;;;;;;14.80;99.90;;;;;;5113945;28;19915;-82
2023/12/10 07:40:25;;;;;;;;;;;14.80;99.90;;;;;;5112471;28;19912;-76
2023/12/10 07:42:51;;;;;;;;;;;14.90;99.90;;;;;;5113785;28;19908;-81
2023/12/10 07:45:17;;;;;;;;;;;15.00;99.90;;;;;;5113632;28;19908;-82
2023/12/10 07:47:43;;;;;;;;;;;15.00;99.90;;;;;;5113448;28;20339;-82
2023/12/10 07:50:09;;;;;;;;;;;14.90;99.90;;;;;;5095005;28;20252;-81
2023/12/10 07:52:36;;;;;;;;;;;14.90;99.90;;;;;;5113602;28;19908;-82
2023/12/10 07:55:02;;;;;;;;;;;15.00;99.90;;;;;;5113288;28;20384;-79
2023/12/10 07:57:28;;;;;;;;;;;15.10;99.90;;;;;;5114120;28;19931;-83
2023/12/10 07:59:54;;;;;;;;;;;15.10;99.90;;;;;;5113598;28;20351;-82
2023/12/10 08:02:20;;;;;;;;;;;15.30;99.90;;;;;;5113068;28;19907;-81
2023/12/10 08:04:45;;;;;;;;;;;15.50;99.90;;;;;;5113557;28;19915;-84
2023/12/10 08:07:11;;;;;;;;;;;15.60;99.90;;;;;;5094792;28;19908;-82
2023/12/10 08:09:37;;;;;;;;;;;15.70;99.90;;;;;;5095520;28;19951;-82
2023/12/10 08:12:03;;;;;;;;;;;15.90;99.90;;;;;;5112332;28;19911;-82
2023/12/10 08:14:29;;;;;;;;;;;16.00;99.90;;;;;;5113433;28;19990;-81
2023/12/10 08:16:55;;;;;;;;;;;16.20;99.90;;;;;;5113069;28;19908;-81
2023/12/10 08:19:21;;;;;;;;;;;16.00;99.90;;;;;;5113317;28;19911;-81
2023/12/10 08:21:47;;;;;;;;;;;16.10;99.90;;;;;;5093452;28;19912;-81
2023/12/10 08:24:12;;;;;;;;;;;16.30;99.90;;;;;;5112674;28;19915;-80
2023/12/10 08:26:38;;;;;;;;;;;16.30;99.90;;;;;;5112562;28;19907;-81
2023/12/10 08:29:04;;;;;;;;;;;16.50;99.90;;;;;;5112718;28;19908;-82
2023/12/10 08:31:30;;;;;;;;;;;16.70;99.90;;;;;;5112730;28;19920;-83
2023/12/10 08:33:55;;;;;;;;;;;17.00;99.90;;;;;;5094407;28;19961;-82
2023/12/10 08:36:21;;;;;;;;;;;17.30;99.90;;;;;;5128239;27;19911;-82
2023/12/10 08:38:47;;;;;;;;;;;17.30;99.90;;;;;;5094407;28;20308;-83
2023/12/10 08:41:13;;;;;;;;;;;17.50;99.90;;;;;;5128384;27;19908;-83
2023/12/10 08:43:39;;;;;;;;;;;17.40;99.90;;;;;;5112849;28;19908;-82
2023/12/10 08:46:05;;;;;;;;;;;17.50;99.90;;;;;;5094219;28;19908;-83
2023/12/10 08:48:30;;;;;;;;;;;17.40;99.90;;;;;;5112703;28;19912;-84
2023/12/10 08:50:56;;;;;;;;;;;17.30;99.90;;;;;;5112449;28;19919;-83
2023/12/10 08:53:22;;;;;;;;;;;16.70;99.90;;;;;;5112616;28;19908;-81
2023/12/10 08:55:48;;;;;;;;;;;16.60;99.90;;;;;;5112129;28;19920;-82
2023/12/10 08:58:14;;;;;;;;;;;16.70;99.90;;;;;;5112757;28;19930;-82
2023/12/10 09:00:41;;;;;;;;;;;16.90;99.90;;;;;;5093810;28;19959;-79
2023/12/10 09:03:07;;;;;;;;;;;16.80;99.90;;;;;;5093409;28;19919;-82
2023/12/10 09:05:33;;;;;;;;;;;17.00;99.90;;;;;;5112052;28;20006;-78
2023/12/10 09:07:59;;;;;;;;;;;17.10;99.90;;;;;;5112335;28;19930;-79
2023/12/10 09:10:25;;;;;;;;;;;16.90;99.90;;;;;;5112111;28;19908;-77
2023/12/10 09:12:51;;;;;;;;;;;16.90;99.90;;;;;;5112033;28;19916;-76
2023/12/10 09:15:17;;;;;;;;;;;17.00;99.90;;;;;;5111961;28;19965;-79
2023/12/10 09:17:43;;;;;;;;;;;17.10;99.90;;;;;;5112689;28;19912;-78
2023/12/10 09:20:10;;;;;;;;;;;17.30;99.90;;;;;;5112697;28;20013;-79
2023/12/10 09:22:36;;;;;;;;;;;17.60;99.90;;;;;;5113562;28;19965;-80
2023/12/10 09:25:02;;;;;;;;;;;17.70;99.90;;;;;;5117162;28;19908;-81
2023/12/10 09:27:28;;;;;;;;;;;17.70;99.90;;;;;;5117488;28;19908;-80
2023/12/10 09:29:56;;;;;;;;;;;17.50;99.90;;;;;;5116964;28;19920;-81
2023/12/10 09:32:26;;;;;;;;;;;17.40;99.90;;;;;;5116814;28;19916;-82
2023/12/10 09:34:53;;;;;;;;;;;17.20;99.90;;;;;;5098471;28;19961;-80
2023/12/10 09:37:19;;;;;;;;;;;17.20;99.90;;;;;;5117316;28;20310;-80
2023/12/10 09:39:46;;;;;;;;;;;17.30;99.90;;;;;;5117020;28;19958;-80
2023/12/10 09:42:12;;;;;;;;;;;17.20;99.90;;;;;;5116413;28;20363;-80
2023/12/10 09:44:38;;;;;;;;;;;17.00;99.90;;;;;;5098150;28;19977;-83
2023/12/10 09:47:07;;;;;;;;;;;17.20;99.90;;;;;;5115755;28;20278;-79
2023/12/10 09:49:37;;;;;;;;;;;17.20;99.90;;;;;;5115932;28;19912;-80
2023/12/10 09:52:06;;;;;;;;;;;17.20;99.90;;;;;;5115697;28;19919;-79
2023/12/10 09:54:32;;;;;;;;;;;17.30;99.90;;;;;;5115694;28;19950;-80
2023/12/10 09:56:58;;;;;;;;;;;17.50;99.90;;;;;;5116610;28;20298;-85
2023/12/10 09:59:24;;;;;;;;;;;17.50;99.90;;;;;;5115856;28;20247;-79
2023/12/10 10:01:50;;;;;;;;;;;17.60;99.90;;;;;;5115686;28;20510;-79
2023/12/10 10:04:19;;;;;;;;;;;17.50;99.90;;;;;;5115443;28;19943;-79
2023/12/10 10:06:45;;;;;;;;;;;17.80;99.90;;;;;;5115223;28;19918;-79
2023/12/10 10:09:11;;;;;;;;;;;18.10;99.90;;;;;;5115202;28;19911;-79
2023/12/10 10:11:39;;;;;;;;;;;18.20;99.90;;;;;;5096386;28;20275;-76
2023/12/10 10:14:05;;;;;;;;;;;18.10;99.90;;;;;;5115391;28;19912;-76
2023/12/10 10:16:32;;;;;;;;;;;17.80;99.90;;;;;;5096857;28;19967;-79
2023/12/10 10:19:00;;;;;;;;;;;17.80;99.90;;;;;;5115406;28;19908;-77
2023/12/10 10:21:27;;;;;;;;;;;17.80;99.90;;;;;;5115389;28;19908;-79
2023/12/10 10:23:53;;;;;;;;;;;17.60;99.90;;;;;;5115041;28;19908;-80
2023/12/10 10:26:19;;;;;;;;;;;17.80;99.90;;;;;;5115225;28;20051;-80
2023/12/10 10:28:46;;;;;;;;;;;17.90;99.90;;;;;;5114944;28;19911;-79
2023/12/10 10:31:12;;;;;;;;;;;17.80;99.90;;;;;;5101488;28;19947;-80
2023/12/10 10:33:38;;;;;;;;;;;17.60;99.90;;;;;;5076358;28;19981;-78
2023/12/10 10:36:05;;;;;;;;;;;17.70;99.90;;;;;;5094305;28;19935;-79
2023/12/10 10:38:31;;;;;;;;;;;17.70;99.90;;;;;;5076437;28;19970;-79
2023/12/10 10:40:58;;;;;;;;;;;17.80;99.90;;;;;;5094545;28;19915;-79
2023/12/10 10:43:25;;;;;;;;;;;17.60;99.90;;;;;;5094752;28;19916;-74
2023/12/10 10:45:52;;;;;;;;;;;17.30;99.90;;;;;;5094558;28;19912;-78
2023/12/10 10:48:18;;;;;;;;;;;17.40;99.90;;;;;;5095006;28;20065;-79
2023/12/10 10:50:44;;;;;;;;;;;17.50;99.90;;;;;;5076311;28;20402;-78
2023/12/10 10:53:11;;;;;;;;;;;17.60;99.90;;;;;;5076087;28;19954;-78
2023/12/10 10:55:37;;;;;;;;;;;17.60;99.90;;;;;;5094775;28;19923;-81
2023/12/10 10:58:24;;;;;;;;;;;17.70;99.90;;;;;;5094555;28;19908;-78
2023/12/10 11:00:51;;;;;;;;;;;17.90;99.90;;;;;;5076236;28;19908;-76
2023/12/10 11:03:17;;;;;;;;;;;18.00;99.90;;;;;;5093818;28;20046;-79
2023/12/10 11:05:43;;;;;;;;;;;18.20;99.90;;;;;;5094451;28;19955;-78
2023/12/10 11:08:10;;;;;;;;;;;18.30;99.90;;;;;;5095046;28;19908;-80
2023/12/10 11:10:40;;;;;;;;;;;18.30;99.90;;;;;;5075811;28;19912;-80
2023/12/10 11:13:06;;;;;;;;;;;18.30;99.90;;;;;;5075844;28;20399;-80
2023/12/10 11:15:32;;;;;;;;;;;18.20;99.90;;;;;;5093942;28;19962;-79
2023/12/10 11:18:02;;;;;;;;;;;18.40;99.90;;;;;;5093915;28;19912;-79
2023/12/10 11:20:37;;;;;;;;;;;18.60;99.90;;;;;;5094051;28;19914;-79
2023/12/10 11:23:03;;;;;;;;;;;19.00;99.90;;;;;;5094045;28;19995;-74
2023/12/10 11:25:30;;;;;;;;;;;19.10;99.90;;;;;;5093893;28;20389;-79
2023/12/10 11:27:57;;;;;;;;;;;19.20;99.90;;;;;;5093718;28;19912;-77
2023/12/10 11:30:23;;;;;;;;;;;19.50;99.90;;;;;;5099667;28;19922;-78
2023/12/10 11:32:49;;;;;;;;;;;19.60;99.90;;;;;;5113913;28;19934;-78
2023/12/10 11:35:15;;;;;;;;;;;19.50;99.90;;;;;;5114053;28;20312;-79
2023/12/10 11:37:41;;;;;;;;;;;19.30;99.90;;;;;;5114273;28;20220;-77
2023/12/10 11:40:08;;;;;;;;;;;19.30;99.90;;;;;;5113871;28;19912;-78
2023/12/10 11:42:34;;;;;;;;;;;19.10;99.90;;;;;;5113728;28;20010;-78
2023/12/10 11:45:00;;;;;;;;;;;18.80;99.90;;;;;;5113505;28;19957;-78
2023/12/10 11:47:26;;;;;;;;;;;18.80;99.90;;;;;;5112546;28;20391;-77
2023/12/10 11:49:54;;;;;;;;;;;18.70;99.90;;;;;;5113366;28;19920;-79
2023/12/10 11:52:20;;;;;;;;;;;18.50;99.90;;;;;;5113240;28;19908;-77
2023/12/10 11:54:46;;;;;;;;;;;18.40;99.90;;;;;;5113141;28;19942;-77
2023/12/10 11:57:12;;;;;;;;;;;18.20;99.90;;;;;;5112825;28;19926;-78
2023/12/10 11:59:38;;;;;;;;;;;18.10;99.90;;;;;;5120390;27;19994;-79
2023/12/10 12:02:05;;;;;;;;;;;18.10;99.90;;;;;;5112835;28;20276;-79
2023/12/10 12:04:35;;;;;;;;;;;18.10;99.90;;;;;;5112914;28;19912;-79
2023/12/10 12:07:01;;;;;;;;;;;18.30;99.90;;;;;;5110751;28;19977;-79
2023/12/10 12:09:30;;;;;;;;;;;18.50;99.90;;;;;;5113005;28;20287;-79
2023/12/10 12:11:56;;;;;;;;;;;18.60;99.90;;;;;;5113057;28;20371;-79
2023/12/10 12:14:22;;;;;;;;;;;18.80;99.90;;;;;;5113116;28;19916;-78
2023/12/10 12:16:48;;;;;;;;;;;19.00;99.90;;;;;;5112810;28;19961;-79
2023/12/10 12:19:24;;;;;;;;;;;19.10;99.90;;;;;;5112516;28;19991;-77
2023/12/10 12:21:50;;;;;;;;;;;19.40;99.90;;;;;;5112549;28;20285;-78
2023/12/10 12:24:16;;;;;;;;;;;19.60;99.90;;;;;;5112568;28;19915;-74
2023/12/10 12:26:42;;;;;;;;;;;19.80;99.90;;;;;;5094274;28;20220;-78
2023/12/10 12:29:08;;;;;;;;;;;19.90;99.90;;;;;;5112544;28;19915;-79
2023/12/10 12:31:34;;;;;;;;;;;19.80;99.90;;;;;;5111974;28;20363;-78
2023/12/10 12:34:00;;;;;;;;;;;19.90;99.90;;;;;;5109567;28;19923;-78
2023/12/10 12:36:26;;;;;;;;;;;19.90;99.90;;;;;;5112292;28;19907;-78
2023/12/10 12:38:51;;;;;;;;;;;20.00;99.90;;;;;;5112583;28;19912;-78
2023/12/10 12:41:17;;;;;;;;;;;19.70;99.90;;;;;;5112945;28;19934;-78
2023/12/10 12:43:43;;;;;;;;;;;19.50;99.90;;;;;;5093903;28;19912;-72
2023/12/10 12:46:09;;;;;;;;;;;19.40;99.90;;;;;;5112813;28;20395;-73
2023/12/10 12:48:35;;;;;;;;;;;19.30;99.90;;;;;;5113042;28;19908;-78
2023/12/10 12:51:01;;;;;;;;;;;19.20;99.90;;;;;;5112563;28;19915;-78
2023/12/10 12:53:26;;;;;;;;;;;19.20;99.90;;;;;;5094065;28;19908;-78
2023/12/10 12:55:52;;;;;;;;;;;19.00;99.90;;;;;;5112801;28;20010;-74
2023/12/10 12:58:18;;;;;;;;;;;19.00;99.90;;;;;;5112199;28;19915;-76
2023/12/10 13:00:45;;;;;;;;;;;18.90;99.90;;;;;;5112321;28;19907;-75
2023/12/10 13:03:12;;;;;;;;;;;18.80;99.90;;;;;;5112000;28;19912;-77
2023/12/10 13:05:45;;;;;;;;;;;18.70;99.90;;;;;;5112338;28;19915;-74
2023/12/10 13:08:24;;;;;;;;;;;18.70;99.90;;;;;;5112789;28;19922;-74
2023/12/10 13:10:50;;;;;;;;;;;18.70;99.90;;;;;;5093965;28;19907;-79
2023/12/10 13:13:16;;;;;;;;;;;18.70;99.90;;;;;;5111883;28;20268;-79
2023/12/10 13:15:42;;;;;;;;;;;18.80;99.90;;;;;;5093913;28;19916;-78
2023/12/10 13:18:08;;;;;;;;;;;18.90;99.90;;;;;;5112123;28;19916;-79
2023/12/10 13:20:33;;;;;;;;;;;19.00;99.90;;;;;;5112348;28;20377;-80
2023/12/10 13:22:59;;;;;;;;;;;18.80;99.90;;;;;;5111725;28;19932;-79
2023/12/10 13:25:25;;;;;;;;;;;18.80;99.90;;;;;;5112310;28;20298;-75
2023/12/10 13:27:51;;;;;;;;;;;18.90;99.90;;;;;;5112329;28;19912;-80
2023/12/10 13:30:17;;;;;;;;;;;19.00;99.90;;;;;;5111962;28;19965;-79
2023/12/10 13:32:43;;;;;;;;;;;19.10;99.90;;;;;;5112026;28;19990;-79
2023/12/10 13:35:09;;;;;;;;;;;19.20;99.90;;;;;;5112184;28;19916;-80
2023/12/10 13:37:34;;;;;;;;;;;19.20;99.90;;;;;;5112953;28;20248;-79
2023/12/10 13:40:00;;;;;;;;;;;19.00;99.90;;;;;;5112683;28;19919;-79
2023/12/10 13:42:26;;;;;;;;;;;18.90;99.90;;;;;;5112649;28;19951;-78
2023/12/10 13:44:52;;;;;;;;;;;18.80;99.90;;;;;;5111959;28;20002;-78
2023/12/10 13:47:18;;;;;;;;;;;18.80;99.90;;;;;;5112130;28;19919;-79
2023/12/10 13:49:43;;;;;;;;;;;18.40;99.90;;;;;;5093530;28;19908;-80
2023/12/10 13:52:09;;;;;;;;;;;18.40;99.90;;;;;;5112159;28;19912;-79
2023/12/10 13:54:35;;;;;;;;;;;18.50;99.90;;;;;;5111952;28;19916;-79
2023/12/10 13:57:01;;;;;;;;;;;18.30;99.90;;;;;;5112304;28;20011;-79
2023/12/10 13:59:29;;;;;;;;;;;18.20;99.90;;;;;;5111798;28;19961;-79
2023/12/10 14:01:55;;;;;;;;;;;18.10;99.90;;;;;;5111477;28;19908;-78
2023/12/10 14:04:22;;;;;;;;;;;18.10;99.90;;;;;;5111486;28;20329;-78
2023/12/10 14:06:47;;;;;;;;;;;18.10;99.90;;;;;;5112204;28;19984;-78
2023/12/10 14:09:14;;;;;;;;;;;18.00;99.90;;;;;;5111391;28;20529;-77
2023/12/10 14:11:40;;;;;;;;;;;18.00;99.90;;;;;;5115051;28;19908;-78